SKBO/BOG METAR and TAF weather

Enter ICAO airport designator
Station Type Date Time Source
SKBO METAR 2021/05/14 14:00 UTC NOAA

SKBO 141400Z 05008KT 9999 SCT017 SCT080 16/10 Q1028 NOSIG RMK A3035


Station Type Date Time Source
SKBO Decoded METAR 2021/05/14 14:00 UTC NOAA

Bogota / Eldorado, Colombia (SKBO) 04-43N 074-09W 2548M
May 14, 2021 - 10:00 AM EDT / 2021.05.14 1400 UTC
Wind: from the NE (050 degrees) at 9 MPH (8 KT):0
Visibility: greater than 7 mile(s):0
Sky conditions: partly cloudy
Temperature: 60 F (16 C)
Dew Point: 50 F (10 C)
Relative Humidity: 67%
Pressure (altimeter): 30.36 in. Hg (1028 hPa)
ob: SKBO 141400Z 05008KT 9999 SCT017 SCT080 16/10 Q1028 NOSIG RMK A3035
cycle: 14

Station Type Date Time Source
SKBO TAF 2021/05/14 12:40 UTC NOAA

TAF SKBO 141030Z 1412/1512 VRB02KT 9999 SCT015
BECMG 1415/1417 14012KT BKN020
BECMG 1501/1503 VRB02KT SCT015
TEMPO 1507/1510 DZ SCT010 BKN080 TX21/1418Z TN09/1510Z

Example: see airport list